Time;durP1;ratioP1;P1;durP2;ratioP2;P2;SDS_P1;SDS_P2;PMS_P1;PMS_P2;Temp;Humidity;BMP_temperature;BMP_pressure;BME280_temperature;BME280_humidity;BME280_pressure;Samples;Min_cycle;Max_cycle;Signal;HPM_P1;HPM_P2
2022/10/06 00:00:10;;;;;;;0.80;0.50;;;14.30;98.90;;;;;;5054396;28;20571;-76
2022/10/06 00:02:37;;;;;;;1.10;0.60;;;14.40;81.80;;;;;;5052648;28;20751;-76
2022/10/06 00:05:04;;;;;;;1.20;0.50;;;14.50;71.30;;;;;;5056925;28;20447;-76
2022/10/06 00:07:31;;;;;;;0.80;0.47;;;14.60;57.60;;;;;;5052189;28;20451;-76
2022/10/06 00:09:57;;;;;;;0.80;0.50;;;14.70;38.60;;;;;;5055800;28;20457;-76
2022/10/06 00:12:24;;;;;;;1.17;0.40;;;14.80;28.20;;;;;;5051733;28;20455;-76
2022/10/06 00:14:52;;;;;;;0.80;0.50;;;14.90;22.20;;;;;;5057122;28;20435;-76
2022/10/06 00:17:19;;;;;;;0.70;0.50;;;14.90;16.70;;;;;;5055646;28;20485;-76
2022/10/06 00:19:46;;;;;;;0.70;0.50;;;14.90;17.30;;;;;;5058367;28;20825;-76
2022/10/06 00:22:13;;;;;;;0.87;0.50;;;15.00;8.70;;;;;;5055920;28;20538;-76
2022/10/06 00:24:40;;;;;;;1.50;0.40;;;15.00;6.50;;;;;;5058332;28;20542;-76
2022/10/06 00:27:07;;;;;;;0.80;0.50;;;15.10;1.00;;;;;;5057269;28;20451;-76
2022/10/06 00:29:33;;;;;;;1.30;0.50;;;15.20;1.00;;;;;;5058994;28;20545;-76
2022/10/06 00:32:02;;;;;;;0.67;0.50;;;15.30;1.00;;;;;;5055743;28;20447;-75
2022/10/06 00:34:28;;;;;;;1.17;0.43;;;15.30;1.00;;;;;;5059351;28;20447;-76
2022/10/06 00:36:55;;;;;;;0.70;0.50;;;15.30;1.00;;;;;;5055569;28;20487;-75
2022/10/06 00:39:22;;;;;;;0.80;0.57;;;15.40;1.00;;;;;;5059222;28;20758;-76
2022/10/06 00:41:49;;;;;;;0.80;0.50;;;15.40;1.00;;;;;;5059234;28;20547;-76
2022/10/06 00:44:16;;;;;;;1.50;0.50;;;15.40;1.00;;;;;;5058193;28;20548;-75
2022/10/06 00:46:45;;;;;;;0.70;0.50;;;15.40;1.00;;;;;;5059737;28;20910;-75
2022/10/06 00:49:20;;;;;;;0.80;0.60;;;15.40;1.00;;;;;;5055799;28;20455;-76
2022/10/06 00:51:49;;;;;;;0.60;0.50;;;15.40;1.00;;;;;;5058078;28;20950;-76
2022/10/06 00:54:17;;;;;;;0.80;0.50;;;15.40;1.00;;;;;;5055663;28;20502;-76
2022/10/06 00:56:47;;;;;;;0.67;0.40;;;15.50;1.00;;;;;;5057970;28;20487;-76
2022/10/06 00:59:16;;;;;;;0.67;0.50;;;15.40;1.00;;;;;;5055749;28;20875;-76
2022/10/06 01:01:54;;;;;;;2.00;0.50;;;15.40;1.00;;;;;;5057806;28;20470;-76
2022/10/06 01:04:24;;;;;;;1.40;0.40;;;15.40;1.00;;;;;;5058949;28;20455;-76
2022/10/06 01:06:53;;;;;;;0.70;0.50;;;15.40;1.00;;;;;;5058437;28;20913;-76
2022/10/06 01:09:22;;;;;;;1.13;0.40;;;15.30;1.00;;;;;;5058524;28;20459;-76
2022/10/06 01:14:21;;;;;;;0.70;0.40;;;15.30;1.00;;;;;;5043147;22;20779;-76
2022/10/06 01:16:53;;;;;;;0.80;0.40;;;15.30;1.00;;;;;;5038068;28;20488;-76
2022/10/06 01:19:36;;;;;;;0.50;0.40;;;15.20;1.00;;;;;;5038363;28;20448;-76
2022/10/06 01:22:06;;;;;;;0.60;0.40;;;15.20;1.00;;;;;;5033495;28;20896;-75
2022/10/06 01:24:34;;;;;;;1.73;0.60;;;15.10;1.00;;;;;;5038321;28;20454;-76
2022/10/06 01:27:03;;;;;;;0.80;0.50;;;15.20;1.00;;;;;;5034625;28;20455;-75
2022/10/06 01:29:32;;;;;;;1.00;0.50;;;15.10;1.00;;;;;;5037534;28;20547;-75
2022/10/06 01:31:59;;;;;;;0.90;0.50;;;15.20;1.00;;;;;;5035246;28;20817;-75
2022/10/06 01:34:27;;;;;;;1.00;0.50;;;15.10;1.00;;;;;;5038502;28;20523;-75
2022/10/06 01:36:54;;;;;;;1.20;0.30;;;15.20;1.00;;;;;;5037091;28;20491;-75
2022/10/06 01:39:20;;;;;;;1.33;0.43;;;15.20;1.00;;;;;;5038646;28;20456;-76
2022/10/06 01:41:48;;;;;;;0.80;0.50;;;15.10;1.00;;;;;;5039065;28;20528;-76
2022/10/06 01:44:15;;;;;;;0.83;0.50;;;15.10;1.00;;;;;;5036448;28;20479;-76
2022/10/06 01:46:42;;;;;;;1.10;0.50;;;15.20;1.00;;;;;;5038477;28;20472;-76
2022/10/06 01:49:09;;;;;;;0.90;0.50;;;15.10;1.00;;;;;;5036219;28;20939;-76
2022/10/06 01:51:36;;;;;;;0.70;0.53;;;15.10;1.00;;;;;;5038249;28;20923;-75
2022/10/06 01:54:03;;;;;;;0.80;0.60;;;15.10;1.00;;;;;;5036080;28;20506;-76
2022/10/06 01:56:30;;;;;;;1.10;0.60;;;15.10;1.00;;;;;;5038365;28;20872;-76
2022/10/06 01:58:58;;;;;;;0.90;0.60;;;15.20;1.00;;;;;;5035429;28;20467;-76
2022/10/06 02:01:25;;;;;;;0.67;0.50;;;15.10;1.00;;;;;;5038280;28;20876;-76
2022/10/06 02:03:51;;;;;;;0.80;0.60;;;15.10;1.00;;;;;;5035130;28;20460;-76
2022/10/06 02:06:18;;;;;;;1.40;0.50;;;15.10;1.00;;;;;;5038688;28;20493;-75
2022/10/06 02:08:45;;;;;;;0.93;0.53;;;15.10;3.50;;;;;;5034681;28;20456;-76
2022/10/06 02:11:12;;;;;;;1.20;0.40;;;15.10;1.00;;;;;;5036534;28;20436;-76
2022/10/06 02:13:39;;;;;;;0.97;0.70;;;15.00;6.60;;;;;;5035413;28;20575;-76
2022/10/06 02:16:09;;;;;;;1.33;0.60;;;14.90;5.80;;;;;;5036934;28;20455;-75
2022/10/06 02:18:36;;;;;;;0.83;0.60;;;14.80;20.40;;;;;;5034235;28;20484;-76
2022/10/06 02:21:04;;;;;;;3.27;0.60;;;14.70;25.30;;;;;;5037044;28;20914;-76
2022/10/06 02:23:31;;;;;;;0.70;0.50;;;14.70;26.90;;;;;;5033848;28;20479;-76
2022/10/06 02:25:59;;;;;;;1.10;0.57;;;14.70;28.80;;;;;;5037122;28;20444;-76
2022/10/06 02:28:26;;;;;;;0.93;0.63;;;14.70;30.00;;;;;;5034371;28;20511;-76
2022/10/06 02:30:54;;;;;;;1.20;0.70;;;14.70;28.60;;;;;;5037851;28;20479;-74
2022/10/06 02:33:22;;;;;;;0.80;0.60;;;14.70;30.00;;;;;;5034673;28;20464;-76
2022/10/06 02:35:54;;;;;;;0.90;0.60;;;14.60;30.50;;;;;;5037441;28;20884;-77
2022/10/06 02:38:21;;;;;;;0.90;0.50;;;14.60;31.20;;;;;;5035064;28;20487;-76
2022/10/06 02:40:48;;;;;;;1.07;0.60;;;14.60;35.70;;;;;;5038042;28;20506;-74
2022/10/06 02:43:15;;;;;;;1.23;0.50;;;14.50;29.90;;;;;;5034964;28;20463;-74
2022/10/06 02:45:42;;;;;;;2.03;0.50;;;14.50;40.30;;;;;;5037581;28;20444;-76
2022/10/06 02:48:10;;;;;;;0.67;0.50;;;14.50;44.00;;;;;;5034694;28;20752;-74
2022/10/06 02:50:38;;;;;;;1.20;0.70;;;14.50;42.50;;;;;;5036441;28;20807;-74
2022/10/06 02:53:07;;;;;;;1.80;0.63;;;14.50;42.50;;;;;;5035085;28;20463;-74
2022/10/06 02:55:35;;;;;;;1.83;0.50;;;14.50;41.00;;;;;;5036875;28;20930;-76
2022/10/06 02:58:02;;;;;;;0.80;0.60;;;14.40;44.40;;;;;;5033486;28;20491;-75
2022/10/06 03:00:29;;;;;;;1.70;0.67;;;14.30;47.20;;;;;;5036361;28;20739;-74
2022/10/06 03:02:56;;;;;;;1.70;0.60;;;14.30;56.00;;;;;;5032578;28;20647;-74
2022/10/06 03:05:23;;;;;;;0.70;0.50;;;14.30;55.50;;;;;;5036946;28;20926;-74
2022/10/06 03:07:51;;;;;;;1.40;0.60;;;14.20;51.80;;;;;;5034097;28;20464;-74
2022/10/06 03:10:18;;;;;;;0.80;0.60;;;14.20;51.80;;;;;;5037191;28;20875;-74
2022/10/06 03:12:44;;;;;;;1.10;0.50;;;14.20;51.90;;;;;;5034254;28;20515;-74
2022/10/06 03:15:11;;;;;;;0.80;0.57;;;14.30;56.30;;;;;;5037110;28;20452;-74
2022/10/06 03:17:38;;;;;;;1.53;0.50;;;14.30;52.20;;;;;;5033943;28;20488;-74
2022/10/06 03:20:06;;;;;;;2.20;0.60;;;14.40;49.00;;;;;;5037150;28;20494;-74
2022/10/06 03:22:33;;;;;;;1.00;0.60;;;14.40;49.00;;;;;;5034071;28;20460;-74
2022/10/06 03:25:01;;;;;;;1.27;0.60;;;14.40;48.80;;;;;;5036316;28;20444;-74
2022/10/06 03:27:28;;;;;;;0.90;0.70;;;14.40;46.30;;;;;;5037452;28;20462;-74
2022/10/06 03:29:54;;;;;;;1.00;0.60;;;14.30;42.80;;;;;;5033236;28;20456;-73
2022/10/06 03:32:22;;;;;;;0.70;0.50;;;14.30;52.10;;;;;;5036778;28;20515;-74
2022/10/06 03:34:49;;;;;;;0.93;0.57;;;14.20;57.00;;;;;;5037108;28;20892;-74
2022/10/06 03:37:17;;;;;;;1.10;0.50;;;14.30;62.50;;;;;;5034103;28;20488;-74
2022/10/06 03:39:44;;;;;;;1.20;0.60;;;14.30;60.50;;;;;;5036828;28;20494;-74
2022/10/06 03:42:12;;;;;;;10.33;0.63;;;14.40;57.10;;;;;;5034502;28;20523;-74
2022/10/06 03:44:39;;;;;;;1.43;0.60;;;14.40;53.00;;;;;;5037796;28;20545;-74
2022/10/06 03:47:06;;;;;;;0.87;0.50;;;14.40;43.60;;;;;;5034223;28;20953;-74
2022/10/06 03:49:33;;;;;;;1.77;0.63;;;14.30;42.80;;;;;;5041128;28;20484;-74
2022/10/06 03:52:00;;;;;;;1.10;0.70;;;14.30;50.20;;;;;;5037180;28;20462;-74
2022/10/06 03:54:27;;;;;;;0.83;0.60;;;14.30;52.70;;;;;;5039398;28;20459;-74
2022/10/06 03:56:54;;;;;;;1.37;0.70;;;14.20;56.80;;;;;;5038160;28;20464;-74
2022/10/06 03:59:22;;;;;;;1.33;0.60;;;14.20;63.20;;;;;;5040795;28;20448;-74
2022/10/06 04:01:49;;;;;;;1.00;0.67;;;14.20;68.40;;;;;;5037266;28;20519;-74
2022/10/06 04:04:16;;;;;;;1.20;0.60;;;14.30;67.80;;;;;;5040462;28;20462;-74
2022/10/06 04:06:44;;;;;;;0.93;0.60;;;14.30;67.10;;;;;;5037710;28;20558;-74
2022/10/06 04:09:12;;;;;;;1.10;0.63;;;14.30;63.30;;;;;;5040181;28;20538;-74
2022/10/06 04:11:40;;;;;;;1.33;0.67;;;14.40;59.30;;;;;;5034639;28;20918;-74
2022/10/06 04:14:08;;;;;;;0.80;0.60;;;14.50;55.40;;;;;;5039020;28;20475;-74
2022/10/06 04:16:38;;;;;;;1.10;0.50;;;14.50;52.10;;;;;;5037049;28;20546;-74
2022/10/06 04:19:08;;;;;;;1.00;0.70;;;14.50;47.60;;;;;;5039625;28;20483;-74
2022/10/06 04:21:37;;;;;;;2.10;0.67;;;14.50;45.70;;;;;;5037360;28;20817;-74
2022/10/06 04:24:05;;;;;;;0.90;0.60;;;14.50;54.30;;;;;;5039296;28;20448;-74
2022/10/06 04:26:34;;;;;;;1.07;0.63;;;14.50;54.60;;;;;;5035379;28;20456;-75
2022/10/06 04:29:01;;;;;;;1.37;0.70;;;14.50;53.40;;;;;;5037616;28;20448;-74
2022/10/06 04:31:35;;;;;;;1.37;0.70;;;14.50;47.80;;;;;;5032922;28;20441;-74
2022/10/06 04:34:04;;;;;;;1.13;0.50;;;14.50;47.70;;;;;;5036175;28;20448;-75
2022/10/06 04:36:32;;;;;;;2.13;0.60;;;14.40;49.30;;;;;;5034130;28;20538;-75
2022/10/06 04:39:04;;;;;;;1.00;0.70;;;14.40;54.00;;;;;;5036498;28;20583;-75
2022/10/06 04:41:32;;;;;;;1.10;0.60;;;14.40;58.60;;;;;;5033060;28;20551;-75
2022/10/06 04:44:00;;;;;;;1.40;0.70;;;14.40;59.10;;;;;;5039442;28;20510;-75
2022/10/06 04:46:28;;;;;;;1.27;0.70;;;14.40;58.80;;;;;;5035205;28;20522;-75
2022/10/06 04:48:55;;;;;;;3.70;0.67;;;14.50;56.20;;;;;;5038411;28;20444;-76
2022/10/06 04:51:25;;;;;;;2.17;0.70;;;14.40;47.30;;;;;;5034095;28;20451;-76
2022/10/06 04:53:52;;;;;;;0.90;0.60;;;14.40;51.90;;;;;;5037219;28;20543;-76
2022/10/06 04:56:22;;;;;;;1.30;0.80;;;14.40;59.80;;;;;;5032451;28;20466;-76
2022/10/06 04:58:51;;;;;;;1.20;0.70;;;14.40;62.40;;;;;;5035685;28;20480;-76
2022/10/06 05:01:20;;;;;;;2.07;0.70;;;14.40;65.40;;;;;;5033663;28;20754;-76
2022/10/06 05:03:48;;;;;;;1.30;0.70;;;14.40;63.00;;;;;;5037806;28;20568;-76
2022/10/06 05:06:17;;;;;;;1.10;0.67;;;14.40;67.70;;;;;;5035086;28;20547;-76
2022/10/06 05:08:48;;;;;;;1.00;0.70;;;14.50;64.20;;;;;;5039837;28;20527;-75
2022/10/06 05:11:15;;;;;;;1.53;0.70;;;14.50;63.70;;;;;;5036749;28;20822;-75
2022/10/06 05:13:42;;;;;;;1.57;0.70;;;14.50;61.80;;;;;;5038567;28;20489;-75
2022/10/06 05:16:12;;;;;;;1.17;0.70;;;14.50;65.30;;;;;;5033317;28;20483;-75
2022/10/06 05:18:39;;;;;;;0.90;0.70;;;14.50;68.50;;;;;;5036430;28;20490;-76
2022/10/06 05:21:08;;;;;;;1.93;0.70;;;14.60;67.30;;;;;;5035751;28;20462;-76
2022/10/06 05:23:37;;;;;;;1.37;0.67;;;14.70;62.70;;;;;;5037401;28;20900;-75
2022/10/06 05:26:06;;;;;;;1.00;0.70;;;14.70;56.90;;;;;;5030740;28;20946;-75
2022/10/06 05:28:34;;;;;;;0.93;0.60;;;14.70;56.30;;;;;;5035979;28;20832;-75
2022/10/06 05:31:03;;;;;;;1.70;0.87;;;14.80;54.80;;;;;;5033288;28;20868;-75
2022/10/06 05:33:34;;;;;;;1.20;0.67;;;14.70;53.20;;;;;;5036146;28;20452;-75
2022/10/06 05:36:03;;;;;;;0.77;0.50;;;14.70;64.90;;;;;;5037103;28;20475;-76
2022/10/06 05:38:30;;;;;;;1.07;0.70;;;14.70;69.30;;;;;;5037539;28;20490;-76
2022/10/06 05:41:06;;;;;;;1.13;0.70;;;14.70;68.70;;;;;;5035304;28;20547;-76
2022/10/06 05:43:34;;;;;;;1.80;0.70;;;14.70;75.70;;;;;;5037729;28;20476;-75
2022/10/06 05:46:03;;;;;;;1.23;0.70;;;14.70;82.90;;;;;;5033414;28;20464;-75
2022/10/06 05:48:30;;;;;;;6.47;0.70;;;14.70;83.10;;;;;;5036019;28;20451;-75
2022/10/06 05:51:01;;;;;;;1.23;0.60;;;14.80;85.10;;;;;;5034245;28;20521;-75
2022/10/06 05:53:30;;;;;;;0.87;0.70;;;14.90;77.40;;;;;;5036822;28;20911;-75
2022/10/06 05:56:06;;;;;;;1.40;0.80;;;14.90;69.30;;;;;;5034339;28;20468;-75
2022/10/06 05:58:34;;;;;;;1.10;0.90;;;14.90;65.00;;;;;;5037072;28;20484;-75
2022/10/06 06:01:09;;;;;;;1.43;0.80;;;14.90;67.40;;;;;;5033337;28;20456;-78
2022/10/06 06:03:36;;;;;;;4.70;0.90;;;15.00;68.50;;;;;;5035697;28;20758;-74
2022/10/06 06:06:03;;;;;;;1.50;0.70;;;15.00;66.80;;;;;;5032147;28;20456;-74
2022/10/06 06:08:30;;;;;;;2.00;0.80;;;15.10;69.90;;;;;;5037713;28;20506;-75
2022/10/06 06:11:07;;;;;;;1.70;0.60;;;15.10;74.30;;;;;;5034087;28;20467;-77
2022/10/06 06:13:34;;;;;;;1.03;0.70;;;15.00;70.50;;;;;;5040661;28;20791;-76
2022/10/06 06:16:02;;;;;;;1.37;0.70;;;15.00;73.00;;;;;;5039221;28;20496;-76
2022/10/06 06:18:29;;;;;;;2.70;0.90;;;15.00;84.60;;;;;;5039794;28;20472;-75
2022/10/06 06:20:57;;;;;;;2.57;1.00;;;15.10;89.60;;;;;;5036007;28;20726;-76
2022/10/06 06:23:24;;;;;;;1.40;0.73;;;15.20;80.10;;;;;;5039582;28;20417;-76
2022/10/06 06:25:59;;;;;;;1.00;0.70;;;15.30;73.30;;;;;;5035240;28;20441;-76
2022/10/06 06:28:28;;;;;;;1.57;1.00;;;15.50;56.40;;;;;;5039275;28;20503;-74
2022/10/06 06:31:02;;;;;;;1.10;0.80;;;15.50;54.10;;;;;;5039217;28;20463;-75
2022/10/06 06:33:30;;;;;;;2.13;0.80;;;15.60;47.50;;;;;;5036333;28;20452;-76
2022/10/06 06:36:00;;;;;;;1.40;0.90;;;15.70;44.40;;;;;;5036047;28;20518;-77
2022/10/06 06:38:27;;;;;;;2.50;0.90;;;15.80;44.50;;;;;;5036276;28;20812;-74
2022/10/06 06:40:54;;;;;;;1.17;0.80;;;15.90;64.00;;;;;;5032194;28;20510;-75
2022/10/06 06:43:20;;;;;;;0.87;0.60;;;15.90;57.50;;;;;;5036043;28;20456;-76
2022/10/06 06:45:49;;;;;;;1.10;0.70;;;16.00;61.60;;;;;;5036593;28;20456;-78
2022/10/06 06:48:16;;;;;;;1.17;0.60;;;16.00;65.50;;;;;;5039160;28;20455;-77
2022/10/06 06:50:44;;;;;;;1.93;0.60;;;16.20;55.80;;;;;;5032936;28;20460;-78
2022/10/06 06:53:13;;;;;;;1.00;0.70;;;16.20;52.70;;;;;;5037100;28;20453;-77
2022/10/06 06:55:52;;;;;;;0.70;0.50;;;16.40;44.60;;;;;;5037187;28;20468;-77
2022/10/06 06:58:19;;;;;;;1.13;0.60;;;16.40;40.00;;;;;;5031912;28;20483;-77
2022/10/06 07:00:46;;;;;;;1.00;0.60;;;16.40;40.20;;;;;;5037690;28;20812;-77
2022/10/06 07:03:17;;;;;;;0.97;0.50;;;16.40;41.90;;;;;;5032927;28;20807;-77
2022/10/06 07:05:45;;;;;;;1.50;0.60;;;16.40;41.00;;;;;;5037028;28;20535;-77
2022/10/06 07:08:13;;;;;;;1.20;0.50;;;16.50;38.50;;;;;;5033875;28;20749;-78
2022/10/06 07:10:43;;;;;;;0.70;0.40;;;16.50;26.50;;;;;;5038067;28;20895;-78
2022/10/06 07:13:13;;;;;;;0.70;0.43;;;16.60;23.80;;;;;;5037125;28;20520;-77
2022/10/06 07:26:43;;;;;;;0.80;0.50;;;16.80;1.00;;;;;;5014578;28;20474;-76
2022/10/06 07:29:10;;;;;;;1.03;0.50;;;16.90;1.00;;;;;;5038315;28;20448;-75
2022/10/06 07:31:37;;;;;;;0.50;0.30;;;16.90;1.00;;;;;;5039786;28;21039;-76
2022/10/06 07:34:06;;;;;;;1.53;0.40;;;16.90;1.00;;;;;;5036318;28;20487;-76
2022/10/06 07:36:34;;;;;;;0.60;0.50;;;17.00;1.00;;;;;;5040718;28;20841;-77
2022/10/06 07:39:01;;;;;;;1.10;0.50;;;17.10;1.00;;;;;;5038612;28;20978;-76
2022/10/06 07:41:31;;;;;;;0.60;0.40;;;17.10;1.00;;;;;;5041198;28;20541;-76
2022/10/06 07:44:04;;;;;;;0.50;0.30;;;17.10;1.00;;;;;;5036744;28;20498;-76
2022/10/06 07:46:32;;;;;;;0.60;0.40;;;17.10;1.00;;;;;;5040948;28;20452;-76
2022/10/06 07:48:59;;;;;;;1.00;0.40;;;17.20;1.00;;;;;;5036442;28;20452;-76
2022/10/06 07:51:30;;;;;;;0.50;0.40;;;17.00;1.00;;;;;;5041271;28;20433;-75
2022/10/06 07:53:57;;;;;;;1.23;0.40;;;16.90;1.00;;;;;;5037767;28;20934;-75
2022/10/06 07:56:24;;;;;;;0.50;0.40;;;16.90;1.00;;;;;;5040611;28;20540;-75
2022/10/06 07:58:52;;;;;;;0.50;0.40;;;17.00;1.00;;;;;;5041233;28;20472;-75
2022/10/06 08:01:20;;;;;;;0.67;0.30;;;17.10;1.00;;;;;;5040972;28;20884;-75
2022/10/06 08:03:49;;;;;;;1.77;0.40;;;17.20;1.00;;;;;;5041219;28;20509;-75
2022/10/06 08:06:18;;;;;;;0.90;0.30;;;17.20;1.00;;;;;;5039094;28;20551;-76
2022/10/06 08:08:47;;;;;;;1.90;0.40;;;17.10;1.00;;;;;;5041760;28;20439;-76
2022/10/06 08:11:15;;;;;;;0.67;0.40;;;17.20;1.00;;;;;;5038011;28;20777;-76
2022/10/06 08:13:44;;;;;;;0.60;0.30;;;17.30;1.00;;;;;;5041409;28;20511;-76
2022/10/06 08:16:14;;;;;;;1.77;0.47;;;17.50;1.00;;;;;;5037514;28;20915;-78
2022/10/06 08:18:41;;;;;;;1.20;0.47;;;17.50;1.00;;;;;;5038663;28;20566;-78
2022/10/06 08:21:10;;;;;;;1.83;0.40;;;17.40;1.00;;;;;;5036635;28;20460;-79
2022/10/06 08:23:41;;;;;;;0.80;0.37;;;17.50;1.00;;;;;;5041824;28;20535;-78
2022/10/06 08:26:10;;;;;;;0.50;0.20;;;17.60;1.00;;;;;;5039245;28;20522;-78
2022/10/06 08:28:36;;;;;;;0.63;0.30;;;17.60;1.00;;;;;;5041194;28;20764;-78
2022/10/06 08:31:05;;;;;;;0.77;0.30;;;17.60;1.00;;;;;;5036397;28;20793;-78
2022/10/06 08:33:37;;;;;;;0.70;0.40;;;17.50;1.00;;;;;;5038767;28;20479;-78
2022/10/06 08:36:05;;;;;;;0.97;0.30;;;17.60;1.00;;;;;;5039902;28;20463;-78
2022/10/06 08:38:32;;;;;;;1.83;0.40;;;17.50;1.00;;;;;;5041348;28;21116;-77
2022/10/06 08:41:00;;;;;;;0.67;0.30;;;17.50;1.00;;;;;;5040293;28;20507;-78
2022/10/06 08:43:31;;;;;;;0.60;0.30;;;17.40;1.00;;;;;;5041255;28;20543;-77
2022/10/06 08:46:01;;;;;;;0.67;0.30;;;17.30;1.00;;;;;;5030549;28;20864;-77
2022/10/06 08:48:40;;;;;;;3.47;0.30;;;17.30;1.00;;;;;;5042106;28;20714;-79
2022/10/06 08:51:18;;;;;;;0.50;0.30;;;17.20;1.00;;;;;;5036306;28;20486;-78
2022/10/06 08:53:57;;;;;;;0.77;0.33;;;17.30;1.00;;;;;;5020299;28;20460;-76
2022/10/06 08:56:27;;;;;;;0.60;0.30;;;17.50;1.00;;;;;;5037153;28;20444;-78
2022/10/06 08:58:57;;;;;;;3.37;0.97;;;17.60;1.00;;;;;;5031126;28;20551;-78
2022/10/06 09:01:27;;;;;;;0.50;0.30;;;17.70;1.00;;;;;;5036315;28;20799;-79
2022/10/06 09:04:00;;;;;;;1.27;0.20;;;17.80;99.90;;;;;;5034223;28;21055;-76
2022/10/06 09:06:41;;;;;;;0.47;0.30;;;17.90;99.90;;;;;;5037199;28;20452;-78
2022/10/06 09:09:24;;;;;;;1.00;0.30;;;18.00;99.90;;;;;;5034205;28;20448;-78
2022/10/06 09:12:00;;;;;;;1.93;0.20;;;18.10;1.00;;;;;;5036341;28;20536;-78
2022/10/06 09:14:35;;;;;;;1.33;0.30;;;18.00;46.10;;;;;;5035031;28;20455;-78
2022/10/06 09:17:06;;;;;;;0.60;0.30;;;17.90;99.90;;;;;;5038258;28;20926;-79
2022/10/06 09:19:40;;;;;;;0.60;0.20;;;17.80;1.00;;;;;;5035393;28;20557;-78
2022/10/06 09:22:17;;;;;;;0.83;0.20;;;17.80;1.00;;;;;;5039577;28;20454;-78
2022/10/06 09:24:49;;;;;;;0.70;0.30;;;17.90;1.00;;;;;;5039584;28;20467;-78
2022/10/06 09:27:20;;;;;;;0.60;0.27;;;17.80;1.00;;;;;;5045182;28;20455;-78
2022/10/06 09:29:50;;;;;;;1.10;0.30;;;17.80;99.90;;;;;;5041496;28;20452;-78
2022/10/06 09:32:18;;;;;;;0.77;0.30;;;17.70;99.90;;;;;;5042616;28;20484;-77
2022/10/06 09:34:50;;;;;;;0.30;0.20;;;17.90;99.90;;;;;;5034029;28;20463;-78
2022/10/06 09:37:16;;;;;;;0.67;0.20;;;17.90;1.00;;;;;;5038133;28;20692;-78
2022/10/06 09:39:47;;;;;;;0.57;0.30;;;18.00;1.00;;;;;;5033253;28;20480;-76
2022/10/06 09:42:19;;;;;;;0.60;0.30;;;18.20;1.00;;;;;;5037838;28;20457;-77
2022/10/06 09:45:06;;;;;;;0.50;0.30;;;18.40;1.00;;;;;;5032390;28;20480;-77
2022/10/06 09:47:39;;;;;;;2.10;0.30;;;18.50;1.00;;;;;;5018233;28;20544;-76
2022/10/06 09:50:19;;;;;;;3.40;0.30;;;18.40;99.90;;;;;;5014529;28;20507;-75
2022/10/06 09:53:11;;;;;;;0.60;0.20;;;18.40;1.00;;;;;;5024265;28;20480;-77
2022/10/06 09:55:53;;;;;;;0.60;0.40;;;18.50;1.00;;;;;;5030049;28;20728;-78
2022/10/06 09:58:32;;;;;;;0.50;0.30;;;18.70;1.00;;;;;;5035286;28;20448;-78
2022/10/06 10:01:03;;;;;;;2.23;0.40;;;18.80;99.90;;;;;;5032969;28;20515;-77
2022/10/06 10:03:50;;;;;;;0.53;0.30;;;18.70;1.00;;;;;;5035797;28;20508;-78
2022/10/06 10:06:26;;;;;;;0.70;0.30;;;18.60;7.60;;;;;;5030816;28;20462;-77
2022/10/06 10:09:08;;;;;;;0.60;0.23;;;18.50;1.00;;;;;;5028635;28;20894;-76
2022/10/06 10:14:20;;;;;;;1.50;0.30;;;18.30;1.00;;;;;;5032425;28;20463;-75
2022/10/06 10:16:49;;;;;;;0.50;0.30;;;18.40;99.90;;;;;;5035533;28;20444;-75
2022/10/06 10:19:26;;;;;;;0.87;0.20;;;18.50;99.90;;;;;;5033266;28;20523;-76
2022/10/06 10:21:56;;;;;;;0.50;0.30;;;18.50;1.00;;;;;;5033227;28;20444;-77
2022/10/06 10:24:47;;;;;;;0.77;0.30;;;18.50;1.00;;;;;;5029649;28;20985;-78
2022/10/06 10:27:20;;;;;;;1.57;0.30;;;18.50;99.90;;;;;;5035522;28;20440;-78
2022/10/06 10:30:04;;;;;;;1.27;0.30;;;18.50;1.00;;;;;;5031980;28;20462;-78
2022/10/06 10:32:49;;;;;;;0.50;0.30;;;18.40;1.00;;;;;;5035671;28;20510;-79
2022/10/06 10:35:23;;;;;;;0.70;0.40;;;18.30;1.00;;;;;;5032505;28;20460;-79
2022/10/06 10:37:58;;;;;;;0.60;0.30;;;18.30;1.00;;;;;;5035891;28;20448;-79
2022/10/06 10:40:38;;;;;;;0.90;0.20;;;18.40;99.90;;;;;;5033434;28;20485;-79
2022/10/06 10:43:19;;;;;;;0.40;0.20;;;18.30;99.90;;;;;;5016816;28;21079;-79
2022/10/06 10:45:50;;;;;;;0.73;0.30;;;18.30;1.00;;;;;;5028911;28;20464;-79
2022/10/06 10:48:27;;;;;;;0.60;0.30;;;18.70;1.00;;;;;;5036467;28;20484;-79
2022/10/06 10:51:00;;;;;;;0.67;0.20;;;19.00;99.90;;;;;;5029795;28;20514;-79
2022/10/06 10:53:34;;;;;;;0.80;0.20;;;19.00;99.90;;;;;;5033902;28;20444;-79
2022/10/06 10:56:07;;;;;;;0.50;0.30;;;19.10;19.10;;;;;;5013387;28;20523;-79
2022/10/06 10:58:38;;;;;;;0.77;0.20;;;19.10;99.90;;;;;;5017424;28;20753;-78
2022/10/06 11:01:16;;;;;;;0.60;0.30;;;19.00;99.90;;;;;;5033491;28;20472;-79
2022/10/06 11:03:55;;;;;;;0.60;0.30;;;19.00;99.90;;;;;;5036184;28;20903;-79
2022/10/06 11:06:47;;;;;;;0.50;0.30;;;18.90;1.00;;;;;;5035471;28;20534;-78
2022/10/06 11:09:18;;;;;;;1.90;0.30;;;19.00;1.00;;;;;;5033882;28;20550;-78
2022/10/06 11:12:02;;;;;;;1.20;0.30;;;19.30;99.90;;;;;;5037905;28;20444;-78
2022/10/06 11:14:55;;;;;;;0.90;0.33;;;19.30;1.00;;;;;;5033917;28;20449;-78
2022/10/06 11:17:42;;;;;;;0.53;0.30;;;19.30;99.90;;;;;;5038181;28;20440;-79
2022/10/06 11:20:36;;;;;;;1.90;0.40;;;19.30;99.90;;;;;;5019157;28;20941;-79
2022/10/06 11:23:22;;;;;;;0.60;0.30;;;19.60;1.00;;;;;;5028706;28;20993;-79
2022/10/06 11:25:57;;;;;;;4.30;0.93;;;19.60;1.00;;;;;;5037025;28;20456;-78
2022/10/06 11:28:31;;;;;;;0.43;0.30;;;19.70;1.00;;;;;;5039786;28;20571;-79
2022/10/06 11:31:09;;;;;;;0.90;0.30;;;19.60;5.50;;;;;;5042015;28;20452;-79
2022/10/06 11:33:42;;;;;;;1.40;0.33;;;19.50;81.60;;;;;;5044488;28;20500;-79
2022/10/06 11:36:18;;;;;;;1.37;0.30;;;19.30;1.00;;;;;;5041538;28;21091;-80
2022/10/06 11:38:53;;;;;;;2.40;0.30;;;19.40;1.00;;;;;;5036931;28;20582;-80
2022/10/06 11:41:26;;;;;;;0.60;0.30;;;19.60;1.00;;;;;;5039304;28;20468;-79
2022/10/06 11:44:03;;;;;;;0.50;0.30;;;19.70;1.00;;;;;;5032764;28;20463;-77
2022/10/06 11:46:36;;;;;;;0.60;0.30;;;19.70;1.00;;;;;;5036629;28;20530;-79
2022/10/06 11:49:45;;;;;;;0.47;0.23;;;19.80;1.00;;;;;;5015256;28;20538;-79
2022/10/06 11:52:43;;;;;;;0.60;0.30;;;19.80;99.90;;;;;;5045719;28;20448;-80
2022/10/06 11:55:20;;;;;;;0.60;0.30;;;19.70;31.60;;;;;;5048144;28;20455;-80
2022/10/06 11:58:15;;;;;;;0.83;0.30;;;19.90;1.00;;;;;;5045465;28;20436;-81
2022/10/06 12:00:51;;;;;;;2.00;0.30;;;19.90;1.00;;;;;;5038048;28;20643;-80
2022/10/06 12:03:54;;;;;;;0.80;0.30;;;20.00;99.90;;;;;;5047228;28;20447;-79
2022/10/06 12:06:57;;;;;;;3.53;0.30;;;19.90;99.90;;;;;;5033331;28;20448;-80
2022/10/06 12:09:52;;;;;;;0.83;0.30;;;20.00;99.90;;;;;;5042716;28;20448;-79
2022/10/06 12:12:55;;;;;;;0.50;0.20;;;20.20;99.90;;;;;;5043944;28;20468;-80
2022/10/06 12:15:48;;;;;;;1.17;0.30;;;20.20;94.70;;;;;;5043208;28;20495;-79
2022/10/06 12:18:35;;;;;;;0.53;0.27;;;20.40;1.00;;;;;;5044379;28;20447;-79
2022/10/06 12:21:13;;;;;;;0.60;0.30;;;20.40;1.00;;;;;;5041812;28;20463;-79
2022/10/06 12:24:00;;;;;;;0.70;0.20;;;20.50;1.00;;;;;;5052157;28;20467;-79
2022/10/06 12:26:48;;;;;;;0.60;0.27;;;20.40;1.00;;;;;;5052017;28;20456;-80
2022/10/06 12:29:39;;;;;;;0.50;0.30;;;20.40;1.00;;;;;;5043749;28;20456;-79
2022/10/06 12:32:24;;;;;;;0.50;0.27;;;20.40;1.00;;;;;;5047681;28;20464;-80
2022/10/06 12:35:03;;;;;;;1.93;0.40;;;20.30;1.00;;;;;;5039301;28;20521;-79
2022/10/06 12:37:51;;;;;;;1.10;0.30;;;20.30;1.00;;;;;;5051858;28;20452;-78
2022/10/06 12:40:58;;;;;;;3.63;0.40;;;20.00;91.90;;;;;;5047838;28;20487;-78
2022/10/06 12:43:49;;;;;;;1.43;0.30;;;19.80;1.00;;;;;;5044268;28;20491;-78
2022/10/06 12:46:40;;;;;;;0.63;0.37;;;19.70;1.00;;;;;;5038778;28;20449;-78
2022/10/06 12:49:49;;;;;;;0.40;0.20;;;19.70;1.00;;;;;;5038160;28;20475;-78
2022/10/06 12:52:33;;;;;;;0.83;0.30;;;19.70;99.90;;;;;;5032687;28;20465;-78
2022/10/06 12:55:15;;;;;;;0.70;0.30;;;19.60;1.00;;;;;;5043569;28;20460;-79
2022/10/06 12:57:47;;;;;;;0.77;0.30;;;19.50;1.00;;;;;;5050167;28;20448;-77
2022/10/06 13:00:34;;;;;;;0.90;0.23;;;19.50;1.00;;;;;;5045168;28;20518;-78
2022/10/06 13:03:05;;;;;;;0.60;0.30;;;19.50;1.00;;;;;;5050740;28;20512;-78
2022/10/06 13:05:33;;;;;;;0.77;0.30;;;19.40;82.30;;;;;;5038464;28;20452;-76
2022/10/06 13:08:02;;;;;;;4.40;0.30;;;19.30;1.00;;;;;;5037500;28;20452;-77
2022/10/06 13:10:31;;;;;;;0.40;0.30;;;19.20;1.00;;;;;;5032204;28;20457;-77
2022/10/06 13:12:58;;;;;;;1.87;0.37;;;19.20;99.90;;;;;;5037026;28;20490;-74
2022/10/06 13:15:29;;;;;;;0.50;0.30;;;19.30;99.90;;;;;;5031204;28;20562;-75
2022/10/06 13:17:59;;;;;;;1.63;0.20;;;19.40;99.90;;;;;;5036420;28;20463;-74
2022/10/06 13:20:41;;;;;;;0.60;0.30;;;19.50;99.90;;;;;;5031968;28;20488;-75
2022/10/06 13:23:24;;;;;;;1.17;0.30;;;19.50;25.10;;;;;;5034852;28;20515;-74
2022/10/06 13:25:56;;;;;;;1.30;0.30;;;19.50;99.90;;;;;;5030741;28;20548;-75
2022/10/06 13:28:29;;;;;;;0.60;0.30;;;19.60;99.90;;;;;;5036599;28;20888;-75
2022/10/06 13:30:59;;;;;;;0.97;0.40;;;19.70;1.00;;;;;;5032365;28;20799;-74